createdAt,value
2023-05-26T00:01:02.087Z,2.03
2023-05-26T00:02:05.604Z,2.05
2023-05-26T00:03:08.342Z,2.33
2023-05-26T00:04:13.359Z,3.10
2023-05-26T00:05:17.963Z,3.22
2023-05-26T00:06:22.011Z,2.20
2023-05-26T00:07:23.962Z,2.05
2023-05-26T00:08:26.026Z,2.35
2023-05-26T00:09:28.082Z,1.80
2023-05-26T00:10:30.046Z,1.95
2023-05-26T00:11:31.903Z,2.00
2023-05-26T00:12:34.408Z,2.00
2023-05-26T00:13:36.992Z,2.15
2023-05-26T00:14:38.959Z,2.22
2023-05-26T00:15:41.966Z,2.35
2023-05-26T00:16:45.409Z,1.70
2023-05-26T00:17:48.502Z,2.10
2023-05-26T00:18:50.529Z,2.05
2023-05-26T00:19:53.275Z,1.80
2023-05-26T00:20:55.295Z,2.13
2023-05-26T00:21:57.197Z,2.15
2023-05-26T00:22:59.194Z,1.80
2023-05-26T00:24:01.373Z,2.17
2023-05-26T00:25:04.522Z,1.88
2023-05-26T00:26:08.577Z,1.90
2023-05-26T00:27:10.588Z,1.67
2023-05-26T00:28:12.513Z,2.10
2023-05-26T00:29:28.103Z,1.77
2023-05-26T00:30:30.967Z,1.80
2023-05-26T00:31:32.962Z,1.70
2023-05-26T00:32:34.927Z,1.73
2023-05-26T00:33:36.960Z,2.05
2023-05-26T00:34:38.911Z,1.85
2023-05-26T00:35:41.200Z,1.90
2023-05-26T00:36:43.263Z,1.48
2023-05-26T00:37:45.291Z,2.78
2023-05-26T00:38:47.256Z,1.60
2023-05-26T00:39:49.133Z,2.03
2023-05-26T00:40:51.602Z,2.13
2023-05-26T00:41:54.085Z,1.70
2023-05-26T00:42:55.950Z,1.98
2023-05-26T00:43:57.867Z,2.13
2023-05-26T00:44:59.796Z,1.80
2023-05-26T00:46:01.693Z,1.90
2023-05-26T00:47:04.042Z,1.77
2023-05-26T00:48:06.878Z,1.90
2023-05-26T00:49:10.546Z,2.00
2023-05-26T00:50:17.698Z,2.40
2023-05-26T00:51:19.844Z,1.80
2023-05-26T00:52:22.812Z,1.85
2023-05-26T00:53:25.217Z,1.70
2023-05-26T00:54:27.114Z,1.70
2023-05-26T00:55:31.250Z,1.58
2023-05-26T00:56:36.143Z,2.03
2023-05-26T00:57:39.555Z,2.00
2023-05-26T00:58:41.463Z,1.70
2023-05-26T00:59:43.814Z,1.52
2023-05-26T01:00:45.942Z,1.60
2023-05-26T01:01:50.756Z,1.70
2023-05-26T01:02:58.297Z,1.80
2023-05-26T01:04:00.822Z,1.73
2023-05-26T01:05:03.106Z,2.22
2023-05-26T01:06:06.490Z,1.60
2023-05-26T01:07:10.347Z,1.52
2023-05-26T01:08:12.275Z,1.95
2023-05-26T01:09:14.630Z,1.50
2023-05-26T01:10:17.487Z,1.58
2023-05-26T01:12:13.622Z,1.63
2023-05-26T01:13:28.524Z,1.60
2023-05-26T01:14:53.657Z,1.52
2023-05-26T01:16:11.381Z,1.50
2023-05-26T01:17:29.779Z,1.58
2023-05-26T01:19:01.406Z,1.70
2023-05-26T01:20:19.374Z,1.52
2023-05-26T01:21:28.584Z,1.73
2023-05-26T01:22:49.998Z,1.83
2023-05-26T01:24:00.949Z,1.85
2023-05-26T01:25:52.901Z,1.70
2023-05-26T01:27:30.707Z,1.33
2023-05-26T01:28:38.009Z,1.97
2023-05-26T01:29:41.041Z,1.40
2023-05-26T01:30:45.297Z,1.80
2023-05-26T01:31:47.201Z,1.60
2023-05-26T01:32:49.675Z,1.80
2023-05-26T01:33:51.677Z,1.63
2023-05-26T01:34:53.549Z,1.80
2023-05-26T01:35:55.412Z,1.60
2023-05-26T01:36:57.206Z,1.60
2023-05-26T01:38:01.415Z,1.57
2023-05-26T01:39:05.115Z,1.30
2023-05-26T01:40:08.121Z,1.70
2023-05-26T01:41:56.304Z,1.30
2023-05-26T01:43:09.565Z,1.30
2023-05-26T01:44:28.842Z,1.60
2023-05-26T01:45:53.441Z,1.50
2023-05-26T01:46:55.351Z,1.52
2023-05-26T01:48:03.345Z,1.63
2023-05-26T01:49:09.303Z,1.45
2023-05-26T01:50:14.031Z,1.40
2023-05-26T01:51:20.674Z,1.70
2023-05-26T01:52:23.747Z,1.60
2023-05-26T01:53:33.328Z,1.48
2023-05-26T01:54:43.232Z,1.52
2023-05-26T01:55:47.596Z,1.50
2023-05-26T01:56:53.104Z,1.50
2023-05-26T01:57:58.682Z,2.00
2023-05-26T01:59:02.809Z,1.30
2023-05-26T02:00:05.642Z,1.67
2023-05-26T02:01:08.335Z,1.58
2023-05-26T02:02:10.510Z,1.60
2023-05-26T02:03:12.587Z,1.33
2023-05-26T02:04:14.872Z,1.53
2023-05-26T02:05:17.345Z,1.33
2023-05-26T02:06:19.737Z,1.37
2023-05-26T02:07:22.047Z,1.20
2023-05-26T02:08:23.945Z,1.50
2023-05-26T02:09:25.864Z,1.60
2023-05-26T02:10:28.243Z,1.50
2023-05-26T02:11:30.093Z,1.63
2023-05-26T02:12:32.000Z,1.55
2023-05-26T02:13:33.927Z,1.30
2023-05-26T02:14:35.863Z,1.40
2023-05-26T02:15:37.764Z,1.67
2023-05-26T02:16:40.679Z,1.47
2023-05-26T02:17:42.797Z,1.70
2023-05-26T02:18:46.816Z,1.63
2023-05-26T02:19:49.388Z,1.43
2023-05-26T02:20:51.478Z,1.42
2023-05-26T02:21:53.580Z,1.40
2023-05-26T02:22:55.434Z,1.50
2023-05-26T02:23:57.300Z,1.75
2023-05-26T02:24:59.297Z,1.48
2023-05-26T02:26:01.311Z,1.20
2023-05-26T02:27:03.358Z,1.20
2023-05-26T02:28:05.771Z,1.58
2023-05-26T02:29:07.667Z,1.33
2023-05-26T02:30:09.955Z,1.40
2023-05-26T02:31:11.891Z,1.48
2023-05-26T02:32:13.742Z,1.47
2023-05-26T02:33:15.771Z,1.20
2023-05-26T02:34:17.719Z,1.40
2023-05-26T02:35:19.582Z,1.27
2023-05-26T02:36:21.733Z,1.27
2023-05-26T02:37:23.577Z,1.53
2023-05-26T02:38:25.810Z,1.30
2023-05-26T02:39:27.695Z,1.30
2023-05-26T02:40:29.708Z,1.40
2023-05-26T02:41:31.584Z,1.40
2023-05-26T02:42:33.474Z,1.60
2023-05-26T02:43:35.449Z,1.53
2023-05-26T02:44:37.413Z,1.80
2023-05-26T02:45:39.278Z,1.10
2023-05-26T02:46:41.936Z,1.50
2023-05-26T02:47:43.851Z,1.33
2023-05-26T02:48:45.766Z,1.35
2023-05-26T02:49:47.626Z,1.40
2023-05-26T02:50:49.478Z,1.43
2023-05-26T02:51:51.390Z,1.23
2023-05-26T02:52:53.238Z,1.30
2023-05-26T02:53:55.152Z,1.38
2023-05-26T02:54:57.089Z,1.20
2023-05-26T02:55:58.986Z,1.60
2023-05-26T02:57:00.911Z,1.27
2023-05-26T02:58:02.958Z,1.58
2023-05-26T02:59:04.866Z,1.40
2023-05-26T03:00:14.011Z,1.30
2023-05-26T03:01:16.159Z,1.20
2023-05-26T03:02:18.141Z,1.60
2023-05-26T03:03:20.146Z,1.30
2023-05-26T03:04:22.171Z,1.13
2023-05-26T03:05:24.077Z,1.27
2023-05-26T03:06:26.065Z,1.10
2023-05-26T03:07:27.943Z,1.30
2023-05-26T03:08:29.798Z,1.30
2023-05-26T03:09:31.668Z,1.38
2023-05-26T03:10:35.027Z,1.70
2023-05-26T03:11:36.891Z,1.30
2023-05-26T03:12:38.879Z,1.33
2023-05-26T03:13:40.789Z,1.25
2023-05-26T03:14:43.824Z,1.10
2023-05-26T03:15:48.508Z,1.30
2023-05-26T03:16:53.049Z,1.20
2023-05-26T03:17:55.247Z,1.40
2023-05-26T03:18:57.443Z,1.20
2023-05-26T03:19:59.433Z,1.40
2023-05-26T03:21:04.043Z,1.10
2023-05-26T03:22:08.375Z,1.50
2023-05-26T03:23:28.543Z,1.10
2023-05-26T03:24:30.489Z,1.20
2023-05-26T03:25:32.399Z,1.33
2023-05-26T03:26:34.342Z,1.60
2023-05-26T03:27:40.758Z,1.50
2023-05-26T03:28:42.602Z,1.33
2023-05-26T03:29:44.534Z,1.13
2023-05-26T03:30:46.387Z,1.08
2023-05-26T03:31:49.796Z,1.30
2023-05-26T03:32:52.231Z,1.50
2023-05-26T03:33:54.158Z,1.30
2023-05-26T03:34:56.177Z,1.17
2023-05-26T03:36:01.373Z,1.30
2023-05-26T03:37:03.240Z,1.23
2023-05-26T03:38:05.220Z,1.10
2023-05-26T03:39:07.664Z,1.27
2023-05-26T03:40:10.433Z,1.30
2023-05-26T03:41:12.330Z,1.20
2023-05-26T03:42:14.308Z,1.40
2023-05-26T03:43:16.138Z,1.50
2023-05-26T03:44:20.225Z,1.30
2023-05-26T03:45:22.124Z,1.43
2023-05-26T03:46:24.188Z,1.40
2023-05-26T03:47:26.143Z,1.30
2023-05-26T03:48:29.548Z,1.37
2023-05-26T03:49:31.425Z,1.35
2023-05-26T03:50:33.309Z,1.40
2023-05-26T03:51:35.299Z,1.10
2023-05-26T03:52:37.385Z,1.53
2023-05-26T03:53:39.406Z,1.13
2023-05-26T03:54:41.294Z,1.30
2023-05-26T03:55:43.412Z,1.30
2023-05-26T03:56:45.524Z,1.30
2023-05-26T03:57:47.399Z,1.33
2023-05-26T03:58:49.300Z,1.37
2023-05-26T03:59:51.382Z,1.30
2023-05-26T04:00:53.354Z,1.20
2023-05-26T04:01:59.073Z,1.27
2023-05-26T04:03:02.028Z,1.30
2023-05-26T04:04:04.898Z,1.27
2023-05-26T04:05:07.617Z,1.20
2023-05-26T04:06:09.511Z,1.27
2023-05-26T04:07:11.461Z,1.07
2023-05-26T04:08:13.358Z,1.02
2023-05-26T04:09:15.270Z,1.25
2023-05-26T04:10:17.328Z,0.97
2023-05-26T04:11:19.401Z,1.17
2023-05-26T04:12:21.615Z,1.30
2023-05-26T04:13:24.624Z,1.10
2023-05-26T04:14:26.520Z,1.07
2023-05-26T04:15:28.481Z,1.07
2023-05-26T04:16:30.510Z,1.27
2023-05-26T04:17:32.777Z,1.27
2023-05-26T04:18:37.516Z,1.10
2023-05-26T04:19:39.418Z,1.13
2023-05-26T04:20:41.359Z,1.30
2023-05-26T04:21:43.307Z,0.90
2023-05-26T04:22:45.265Z,1.27
2023-05-26T04:23:52.619Z,1.05
2023-05-26T04:24:54.607Z,1.30
2023-05-26T04:25:56.989Z,1.15
2023-05-26T04:26:58.955Z,1.10
2023-05-26T04:28:03.645Z,1.40
2023-05-26T04:29:05.598Z,1.10
2023-05-26T04:30:09.375Z,1.20
2023-05-26T04:31:11.671Z,1.37
2023-05-26T04:32:14.044Z,1.13
2023-05-26T04:33:16.764Z,1.20
2023-05-26T04:34:22.339Z,1.50
2023-05-26T04:35:25.449Z,1.20
2023-05-26T04:36:30.959Z,1.10
2023-05-26T04:37:34.695Z,1.20
2023-05-26T04:38:39.128Z,1.00
2023-05-26T04:39:41.674Z,1.10
2023-05-26T04:40:47.253Z,1.10
2023-05-26T04:41:49.375Z,1.17
2023-05-26T04:42:51.806Z,1.20
2023-05-26T04:43:53.685Z,1.10
2023-05-26T04:44:56.076Z,1.10
2023-05-26T04:45:58.295Z,1.20
2023-05-26T04:47:01.770Z,1.20
2023-05-26T04:48:06.664Z,1.30
2023-05-26T04:49:08.644Z,1.23
2023-05-26T04:50:13.762Z,1.20
2023-05-26T04:51:15.950Z,1.20
2023-05-26T04:52:17.840Z,1.10
2023-05-26T04:53:19.851Z,1.33
2023-05-26T04:54:22.787Z,1.17
2023-05-26T04:55:24.654Z,1.15
2023-05-26T04:56:29.407Z,1.10
2023-05-26T04:57:31.326Z,1.13
2023-05-26T04:58:33.371Z,1.07
2023-05-26T04:59:38.651Z,1.20
2023-05-26T05:00:41.672Z,1.20
2023-05-26T05:01:43.751Z,0.90
2023-05-26T05:02:45.784Z,1.10
2023-05-26T05:03:47.797Z,1.20
2023-05-26T05:04:49.728Z,1.00
2023-05-26T05:05:52.079Z,0.90
2023-05-26T05:06:55.216Z,1.20
2023-05-26T05:07:57.630Z,1.20
2023-05-26T05:09:00.726Z,1.13
2023-05-26T05:10:03.688Z,1.13
2023-05-26T05:11:06.132Z,0.97
2023-05-26T05:12:08.139Z,1.00
2023-05-26T05:13:10.022Z,1.30
2023-05-26T05:14:12.183Z,1.40
2023-05-26T05:15:14.302Z,1.20
2023-05-26T05:16:16.268Z,0.97
2023-05-26T05:17:21.384Z,1.00
2023-05-26T05:18:23.352Z,1.20
2023-05-26T05:19:25.375Z,1.30
2023-05-26T05:20:27.362Z,1.00
2023-05-26T05:21:29.313Z,1.07
2023-05-26T05:22:31.403Z,3.00
2023-05-26T05:23:35.288Z,1.30
2023-05-26T05:24:37.260Z,0.97
2023-05-26T05:25:39.181Z,0.80
2023-05-26T05:26:41.088Z,1.20
2023-05-26T05:27:43.037Z,1.20
2023-05-26T05:28:44.961Z,0.87
2023-05-26T05:29:46.852Z,1.40
2023-05-26T05:30:48.825Z,1.00
2023-05-26T05:31:51.040Z,0.97
2023-05-26T05:32:53.082Z,1.20
2023-05-26T05:33:54.995Z,1.13
2023-05-26T05:34:57.058Z,1.50
2023-05-26T05:35:59.310Z,1.20
2023-05-26T05:37:01.424Z,1.00
2023-05-26T05:38:04.157Z,1.10
2023-05-26T05:39:06.095Z,1.02
2023-05-26T05:40:08.970Z,1.00
2023-05-26T05:41:10.905Z,0.90
2023-05-26T05:42:12.833Z,1.00
2023-05-26T05:43:15.156Z,1.00
2023-05-26T05:44:17.091Z,1.10
2023-05-26T05:45:19.097Z,0.97
2023-05-26T05:46:21.102Z,1.33
2023-05-26T05:47:23.110Z,1.13
2023-05-26T05:48:25.142Z,1.00
2023-05-26T05:49:27.044Z,1.00
2023-05-26T05:50:28.923Z,1.20
2023-05-26T05:51:31.139Z,1.13
2023-05-26T05:52:33.117Z,1.10
2023-05-26T05:53:35.341Z,1.10
2023-05-26T05:54:38.004Z,1.00
2023-05-26T05:55:40.173Z,0.70
2023-05-26T05:56:42.023Z,1.02
2023-05-26T05:57:43.824Z,2.00
2023-05-26T05:58:46.091Z,1.10
2023-05-26T05:59:48.048Z,1.05
2023-05-26T06:00:50.036Z,1.10
2023-05-26T06:01:52.070Z,1.23
2023-05-26T06:02:55.204Z,1.10
2023-05-26T06:03:57.345Z,1.17
2023-05-26T06:05:01.818Z,1.00
2023-05-26T06:06:06.471Z,1.02
2023-05-26T06:07:08.542Z,1.05
2023-05-26T06:08:10.446Z,1.48
2023-05-26T06:09:12.820Z,1.10
2023-05-26T06:10:14.672Z,1.33
2023-05-26T06:11:16.545Z,2.50
2023-05-26T06:12:18.425Z,1.05
2023-05-26T06:13:20.333Z,0.90
2023-05-26T06:14:22.237Z,1.23
2023-05-26T06:15:24.168Z,1.37
2023-05-26T06:16:26.563Z,1.70
2023-05-26T06:17:28.517Z,1.10
2023-05-26T06:18:30.562Z,1.30
2023-05-26T06:19:33.126Z,2.33
2023-05-26T06:20:35.089Z,1.07
2023-05-26T06:21:37.076Z,1.43
2023-05-26T06:22:39.610Z,1.30
2023-05-26T06:23:41.507Z,1.30
2023-05-26T06:24:43.393Z,1.87
2023-05-26T06:25:45.292Z,1.20
2023-05-26T06:26:47.140Z,3.80
2023-05-26T06:27:49.028Z,1.25
2023-05-26T06:28:50.901Z,1.30
2023-05-26T06:29:52.769Z,2.00
2023-05-26T06:30:54.717Z,1.50
2023-05-26T06:31:56.789Z,1.52
2023-05-26T06:32:58.750Z,1.43
2023-05-26T06:34:01.128Z,1.20
2023-05-26T06:35:03.520Z,1.50
2023-05-26T06:36:06.132Z,1.88
2023-05-26T06:37:08.229Z,1.53
2023-05-26T06:38:10.132Z,1.50
2023-05-26T06:39:12.062Z,3.20
2023-05-26T06:40:13.932Z,1.25
2023-05-26T06:41:15.815Z,1.00
2023-05-26T06:42:17.734Z,1.40
2023-05-26T06:43:21.857Z,1.30
2023-05-26T06:44:25.127Z,1.88
2023-05-26T06:45:27.059Z,4.20
2023-05-26T06:46:28.963Z,4.40
2023-05-26T06:47:31.075Z,2.87
2023-05-26T06:48:33.078Z,3.57
2023-05-26T06:49:35.072Z,3.50
2023-05-26T06:50:36.966Z,2.53
2023-05-26T06:51:38.834Z,3.17
2023-05-26T06:52:40.825Z,4.70
2023-05-26T06:53:42.814Z,5.10
2023-05-26T06:54:44.830Z,2.90
2023-05-26T06:55:46.734Z,3.17
2023-05-26T06:56:48.647Z,3.17
2023-05-26T06:57:50.608Z,2.93
2023-05-26T06:58:52.713Z,3.30
2023-05-26T06:59:54.659Z,4.73
2023-05-26T07:01:02.136Z,2.88
2023-05-26T07:02:04.504Z,5.70
2023-05-26T07:03:06.579Z,8.20
2023-05-26T07:04:08.466Z,4.72
2023-05-26T07:05:10.374Z,3.60
2023-05-26T07:06:14.735Z,4.45
2023-05-26T07:07:16.741Z,5.30
2023-05-26T07:08:18.676Z,2.77
2023-05-26T07:09:20.995Z,3.70
2023-05-26T07:10:22.900Z,3.40
2023-05-26T07:11:24.872Z,3.53
2023-05-26T07:12:26.792Z,2.70
2023-05-26T07:13:28.869Z,3.30
2023-05-26T07:14:30.824Z,3.63
2023-05-26T07:15:32.702Z,4.37
2023-05-26T07:16:34.707Z,4.43
2023-05-26T07:17:36.632Z,3.37
2023-05-26T07:18:38.579Z,4.55
2023-05-26T07:19:40.825Z,3.73
2023-05-26T07:20:42.943Z,3.33
2023-05-26T07:21:44.811Z,3.00
2023-05-26T07:22:46.700Z,2.92
2023-05-26T07:23:49.674Z,3.30
2023-05-26T07:24:51.665Z,3.67
2023-05-26T07:25:53.626Z,3.10
2023-05-26T07:26:55.603Z,3.00
2023-05-26T07:27:57.686Z,3.77
2023-05-26T07:28:59.575Z,4.17
2023-05-26T07:30:01.463Z,3.83
2023-05-26T07:31:03.450Z,3.67
2023-05-26T07:32:05.988Z,4.72
2023-05-26T07:33:08.280Z,4.57
2023-05-26T07:34:11.394Z,4.37
2023-05-26T07:35:13.971Z,3.55
2023-05-26T07:36:15.900Z,3.43
2023-05-26T07:37:17.804Z,3.13
2023-05-26T07:38:19.752Z,2.83
2023-05-26T07:39:21.674Z,6.67
2023-05-26T07:40:23.618Z,3.73
2023-05-26T07:41:26.686Z,3.17
2023-05-26T07:42:28.611Z,2.83
2023-05-26T07:43:30.769Z,2.33
2023-05-26T07:44:32.696Z,3.23
2023-05-26T07:45:34.561Z,2.87
2023-05-26T07:46:36.440Z,2.60
2023-05-26T07:47:38.393Z,6.25
2023-05-26T07:48:40.303Z,3.83
2023-05-26T07:49:42.365Z,5.07
2023-05-26T07:50:44.415Z,3.40
2023-05-26T07:51:47.155Z,3.20
2023-05-26T07:52:49.071Z,3.90
2023-05-26T07:53:50.953Z,7.30
2023-05-26T07:54:54.575Z,3.72
2023-05-26T07:55:57.578Z,4.28
2023-05-26T07:56:59.530Z,3.58
2023-05-26T07:58:01.520Z,3.15
2023-05-26T07:59:03.443Z,4.53
2023-05-26T08:00:07.196Z,2.92
2023-05-26T08:01:09.324Z,2.60
2023-05-26T08:02:12.314Z,2.45
2023-05-26T08:03:14.365Z,2.60
2023-05-26T08:04:16.453Z,3.10
2023-05-26T08:05:18.391Z,2.57
2023-05-26T08:06:26.827Z,3.30
2023-05-26T08:07:29.026Z,2.47
2023-05-26T08:08:30.964Z,2.88
2023-05-26T08:09:33.197Z,2.40
2023-05-26T08:10:35.037Z,2.90
2023-05-26T08:11:37.505Z,2.60
2023-05-26T08:12:39.449Z,3.00
2023-05-26T08:13:41.303Z,4.45
2023-05-26T08:14:43.186Z,3.03
2023-05-26T08:15:45.176Z,4.00
2023-05-26T08:16:47.412Z,4.75
2023-05-26T08:17:49.972Z,3.25
2023-05-26T08:18:52.249Z,3.83
2023-05-26T08:19:54.175Z,3.03
2023-05-26T08:20:56.182Z,4.38
2023-05-26T08:21:58.200Z,5.72
2023-05-26T08:23:00.493Z,3.17
2023-05-26T08:24:02.468Z,4.60
2023-05-26T08:25:04.934Z,2.40
2023-05-26T08:26:07.126Z,4.10
2023-05-26T08:27:09.814Z,2.80
2023-05-26T08:28:11.653Z,2.85
2023-05-26T08:29:13.604Z,2.90
2023-05-26T08:30:15.658Z,2.90
2023-05-26T08:31:17.664Z,4.47
2023-05-26T08:32:19.704Z,2.65
2023-05-26T08:33:21.710Z,2.47
2023-05-26T08:34:23.662Z,3.00
2023-05-26T08:35:30.054Z,2.33
2023-05-26T08:36:31.981Z,2.75
2023-05-26T08:37:33.901Z,2.63
2023-05-26T08:38:36.034Z,3.33
2023-05-26T08:39:38.635Z,2.40
2023-05-26T08:40:40.631Z,2.22
2023-05-26T08:42:07.942Z,2.17
2023-05-26T08:43:14.101Z,2.22
2023-05-26T08:44:19.103Z,2.25
2023-05-26T08:45:21.293Z,2.05
2023-05-26T08:46:24.985Z,2.58
2023-05-26T08:47:28.801Z,2.20
2023-05-26T08:48:31.171Z,2.42
2023-05-26T08:49:37.622Z,2.50
2023-05-26T08:50:39.947Z,2.60
2023-05-26T08:51:47.853Z,2.20
2023-05-26T08:53:02.070Z,2.20
2023-05-26T08:54:07.242Z,2.22
2023-05-26T08:55:09.457Z,2.53
2023-05-26T08:56:12.024Z,2.10
2023-05-26T08:57:14.600Z,2.53
2023-05-26T08:58:19.765Z,2.25
2023-05-26T08:59:22.314Z,2.00
2023-05-26T09:00:26.445Z,2.42
2023-05-26T09:01:28.782Z,2.22
2023-05-26T09:02:30.830Z,2.20
2023-05-26T09:03:33.136Z,2.27
2023-05-26T09:04:35.164Z,2.00
2023-05-26T09:05:37.012Z,4.67
2023-05-26T09:06:54.972Z,2.40
2023-05-26T09:08:01.486Z,1.80
2023-05-26T09:09:06.625Z,2.15
2023-05-26T09:10:30.663Z,2.15
2023-05-26T09:12:37.334Z,2.83
2023-05-26T09:13:42.296Z,3.25
2023-05-26T09:14:45.149Z,2.33
2023-05-26T09:16:02.773Z,2.40
2023-05-26T09:17:13.790Z,2.67
2023-05-26T09:18:15.948Z,2.55
2023-05-26T09:19:19.571Z,2.33
2023-05-26T09:20:22.502Z,3.17
2023-05-26T09:21:27.517Z,3.13
2023-05-26T09:22:34.518Z,4.03
2023-05-26T09:23:36.421Z,2.73
2023-05-26T09:24:46.275Z,2.95
2023-05-26T09:25:52.458Z,3.17
2023-05-26T09:26:54.464Z,4.47
2023-05-26T09:28:05.911Z,5.43
2023-05-26T09:29:07.855Z,2.53
2023-05-26T09:30:10.558Z,3.17
2023-05-26T09:31:12.524Z,3.33
2023-05-26T09:32:16.778Z,2.53
2023-05-26T09:33:19.931Z,2.70
2023-05-26T09:34:24.397Z,2.60
2023-05-26T09:35:26.381Z,2.50
2023-05-26T09:36:28.204Z,3.05
2023-05-26T09:37:31.712Z,3.38
2023-05-26T09:38:33.585Z,4.22
2023-05-26T09:39:35.731Z,3.70
2023-05-26T09:40:49.332Z,4.18
2023-05-26T09:41:51.308Z,3.40
2023-05-26T09:42:54.966Z,3.05
2023-05-26T09:44:15.099Z,3.00
2023-05-26T09:45:17.741Z,2.35
2023-05-26T09:46:24.144Z,2.95
2023-05-26T09:47:26.556Z,2.30
2023-05-26T09:48:37.143Z,2.85
2023-05-26T09:49:39.430Z,2.67
2023-05-26T09:50:41.482Z,2.88
2023-05-26T09:51:57.401Z,2.45
2023-05-26T09:53:07.066Z,3.60
2023-05-26T09:54:10.276Z,3.92
2023-05-26T09:55:12.294Z,2.87
2023-05-26T09:56:26.399Z,3.50
2023-05-26T09:57:33.817Z,4.30
2023-05-26T09:58:40.138Z,4.15
2023-05-26T09:59:48.893Z,2.95
2023-05-26T10:00:54.864Z,3.20
2023-05-26T10:01:57.345Z,3.58
2023-05-26T10:03:00.728Z,2.80
2023-05-26T10:04:07.815Z,2.90
2023-05-26T10:05:11.206Z,3.35
2023-05-26T10:06:17.415Z,3.30
2023-05-26T10:07:21.380Z,3.83
2023-05-26T10:08:24.972Z,3.30
2023-05-26T10:09:28.395Z,3.42
2023-05-26T10:10:31.571Z,4.03
2023-05-26T10:11:44.430Z,3.80
2023-05-26T10:12:47.092Z,3.20
2023-05-26T10:13:49.093Z,3.78
2023-05-26T10:14:55.925Z,4.38
2023-05-26T10:15:58.564Z,8.93
2023-05-26T10:17:00.860Z,5.72
2023-05-26T10:18:03.792Z,8.02
2023-05-26T10:19:06.879Z,3.95
2023-05-26T10:20:09.681Z,4.82
2023-05-26T10:21:15.149Z,5.05
2023-05-26T10:22:52.229Z,7.03
2023-05-26T10:24:22.014Z,3.75
2023-05-26T10:25:39.126Z,6.55
2023-05-26T10:27:30.587Z,8.82
2023-05-26T10:29:01.958Z,3.63
2023-05-26T10:30:14.015Z,3.85
2023-05-26T10:31:35.387Z,3.50
2023-05-26T10:32:48.585Z,3.50
2023-05-26T10:33:50.555Z,7.93
2023-05-26T10:34:52.568Z,3.67
2023-05-26T10:35:58.872Z,3.50
2023-05-26T10:37:02.373Z,4.63
2023-05-26T10:38:04.162Z,5.70
2023-05-26T10:39:13.365Z,6.95
2023-05-26T10:40:42.186Z,6.72
2023-05-26T10:41:50.848Z,5.60
2023-05-26T10:42:56.617Z,5.43
2023-05-26T10:44:00.181Z,3.55
2023-05-26T10:45:19.028Z,3.88
2023-05-26T10:46:21.174Z,3.40
2023-05-26T10:47:32.088Z,4.90
2023-05-26T10:48:58.810Z,6.75
2023-05-26T10:50:00.888Z,4.30
2023-05-26T10:51:17.465Z,5.82
2023-05-26T10:52:19.471Z,4.10
2023-05-26T10:53:23.624Z,7.43
2023-05-26T10:54:26.871Z,5.87
2023-05-26T10:55:31.267Z,5.10
2023-05-26T10:56:44.330Z,4.85
2023-05-26T10:57:46.495Z,4.82
2023-05-26T10:58:51.021Z,3.92
2023-05-26T10:59:55.045Z,4.75
2023-05-26T11:01:09.093Z,4.07
2023-05-26T11:02:11.740Z,3.60
2023-05-26T11:03:39.477Z,3.72
2023-05-26T11:04:42.820Z,5.45
2023-05-26T11:05:56.097Z,4.18
2023-05-26T11:07:02.346Z,5.72
2023-05-26T11:08:21.229Z,4.10
2023-05-26T11:09:26.829Z,3.75
2023-05-26T11:11:05.638Z,5.40
2023-05-26T11:12:08.891Z,3.75
2023-05-26T11:13:10.998Z,3.90
2023-05-26T11:14:14.048Z,3.53
2023-05-26T11:15:29.921Z,4.82
2023-05-26T11:16:38.868Z,3.83
2023-05-26T11:17:40.839Z,3.33
2023-05-26T11:18:54.460Z,3.45
2023-05-26T11:19:59.823Z,3.50
2023-05-26T11:21:02.426Z,3.88
2023-05-26T11:22:10.696Z,4.22
2023-05-26T11:23:13.729Z,6.15
2023-05-26T11:24:16.434Z,4.38
2023-05-26T11:25:18.448Z,5.78
2023-05-26T11:26:23.156Z,4.68
2023-05-26T11:27:26.681Z,3.60
2023-05-26T11:28:28.586Z,3.93
2023-05-26T11:29:31.400Z,3.93
2023-05-26T11:30:35.728Z,4.47
2023-05-26T11:31:39.647Z,4.27
2023-05-26T11:32:50.332Z,4.95
2023-05-26T11:33:52.669Z,3.95
2023-05-26T11:34:54.628Z,3.30
2023-05-26T11:35:57.300Z,3.55
2023-05-26T11:36:59.880Z,2.90
2023-05-26T11:38:03.413Z,3.57
2023-05-26T11:39:05.538Z,3.50
2023-05-26T11:40:08.478Z,4.15
2023-05-26T11:41:13.652Z,3.90
2023-05-26T11:42:15.788Z,4.05
2023-05-26T11:43:17.713Z,8.70
2023-05-26T11:44:19.684Z,5.67
2023-05-26T11:45:23.470Z,3.67
2023-05-26T11:46:28.375Z,4.15
2023-05-26T11:47:32.026Z,5.88
2023-05-26T11:48:37.828Z,6.20
2023-05-26T11:49:47.285Z,6.85
2023-05-26T11:50:49.511Z,6.25
2023-05-26T11:51:52.697Z,3.97
2023-05-26T11:52:54.675Z,7.55
2023-05-26T11:53:59.919Z,5.70
2023-05-26T11:55:03.561Z,3.38
2023-05-26T11:56:11.859Z,6.28
2023-05-26T11:57:32.612Z,4.50
2023-05-26T11:58:41.660Z,3.63
2023-05-26T11:59:43.626Z,3.28
2023-05-26T12:00:45.540Z,4.47
2023-05-26T12:01:48.621Z,3.97
2023-05-26T12:02:50.839Z,3.23
2023-05-26T12:03:53.965Z,5.75
2023-05-26T12:04:56.131Z,3.97
2023-05-26T12:06:24.085Z,4.95
2023-05-26T12:07:28.556Z,3.53
2023-05-26T12:08:30.580Z,3.50
2023-05-26T12:09:32.525Z,4.35
2023-05-26T12:10:35.184Z,3.20
2023-05-26T12:11:39.484Z,5.38
2023-05-26T12:12:52.294Z,4.05
2023-05-26T12:14:12.862Z,5.03
2023-05-26T12:15:20.699Z,4.00
2023-05-26T12:16:40.143Z,4.27
2023-05-26T12:17:43.420Z,3.03
2023-05-26T12:18:45.624Z,3.03
2023-05-26T12:19:47.529Z,10.43
2023-05-26T12:20:49.613Z,5.68
2023-05-26T12:22:01.146Z,3.58
2023-05-26T12:23:04.093Z,5.20
2023-05-26T12:24:06.523Z,3.33
2023-05-26T12:25:09.001Z,3.33
2023-05-26T12:26:19.516Z,3.63
2023-05-26T12:27:21.385Z,3.40
2023-05-26T12:28:23.355Z,3.20
2023-05-26T12:29:27.373Z,3.20
2023-05-26T12:31:41.180Z,3.08
2023-05-26T12:32:43.148Z,4.68
2023-05-26T12:33:45.137Z,3.50
2023-05-26T12:34:46.998Z,3.83
2023-05-26T12:35:50.234Z,3.20
2023-05-26T12:36:52.493Z,5.63
2023-05-26T12:37:54.394Z,3.17
2023-05-26T12:38:56.964Z,3.38
2023-05-26T12:39:58.917Z,3.47
2023-05-26T12:41:01.062Z,3.28
2023-05-26T12:42:03.383Z,5.75
2023-05-26T12:43:06.233Z,3.05
2023-05-26T12:44:09.736Z,3.17
2023-05-26T12:45:11.662Z,3.45
2023-05-26T12:46:13.630Z,3.47
2023-05-26T12:47:15.510Z,2.97
2023-05-26T12:48:17.541Z,3.22
2023-05-26T12:49:19.609Z,3.60
2023-05-26T12:50:22.248Z,3.42
2023-05-26T12:51:25.328Z,3.75
2023-05-26T12:52:27.167Z,3.40
2023-05-26T12:53:29.144Z,3.50
2023-05-26T12:54:31.098Z,4.47
2023-05-26T12:55:33.363Z,3.40
2023-05-26T12:56:36.348Z,3.85
2023-05-26T12:57:38.251Z,3.40
2023-05-26T12:58:44.412Z,6.15
2023-05-26T12:59:46.660Z,3.13
2023-05-26T13:00:50.637Z,3.35
2023-05-26T13:01:53.102Z,3.20
2023-05-26T13:02:55.138Z,3.78
2023-05-26T13:03:57.320Z,3.40
2023-05-26T13:04:59.330Z,3.92
2023-05-26T13:06:02.117Z,3.10
2023-05-26T13:07:04.509Z,4.00
2023-05-26T13:08:06.465Z,3.15
2023-05-26T13:09:08.456Z,4.07
2023-05-26T13:10:11.323Z,3.05
2023-05-26T13:11:13.542Z,3.88
2023-05-26T13:12:15.480Z,3.00
2023-05-26T13:13:17.500Z,3.40
2023-05-26T13:14:19.946Z,3.10
2023-05-26T13:15:21.806Z,3.15
2023-05-26T13:16:26.603Z,3.20
2023-05-26T13:17:28.954Z,4.40
2023-05-26T13:18:31.025Z,3.13
2023-05-26T13:19:32.957Z,3.60
2023-05-26T13:20:36.734Z,3.03
2023-05-26T13:21:39.407Z,3.17
2023-05-26T13:22:46.244Z,3.38
2023-05-26T13:23:52.182Z,3.42
2023-05-26T13:24:54.415Z,3.20
2023-05-26T13:25:56.495Z,3.25
2023-05-26T13:26:58.351Z,3.53
2023-05-26T13:28:00.967Z,3.15
2023-05-26T13:29:03.046Z,4.35
2023-05-26T13:30:07.063Z,3.40
2023-05-26T13:31:08.844Z,3.63
2023-05-26T13:32:10.906Z,3.28
2023-05-26T13:33:13.122Z,2.90
2023-05-26T13:34:15.757Z,3.40
2023-05-26T13:35:18.179Z,3.53
2023-05-26T13:36:22.383Z,3.38
2023-05-26T13:37:24.531Z,3.42
2023-05-26T13:38:26.803Z,3.13
2023-05-26T13:39:28.718Z,3.92
2023-05-26T13:40:30.715Z,2.70
2023-05-26T13:41:32.595Z,3.25
2023-05-26T13:42:35.822Z,3.33
2023-05-26T13:43:38.218Z,3.85
2023-05-26T13:44:40.208Z,3.30
2023-05-26T13:45:49.010Z,2.72
2023-05-26T13:46:56.145Z,3.38
2023-05-26T13:47:58.761Z,3.90
2023-05-26T13:49:00.773Z,5.13
2023-05-26T13:50:19.823Z,2.80
2023-05-26T13:51:23.450Z,2.90
2023-05-26T13:52:25.786Z,2.83
2023-05-26T13:53:28.691Z,3.65
2023-05-26T13:54:30.794Z,2.78
2023-05-26T13:55:32.647Z,4.13
2023-05-26T13:56:35.008Z,3.38
2023-05-26T13:57:37.770Z,3.97
2023-05-26T13:58:39.653Z,3.05
2023-05-26T13:59:41.515Z,2.92
2023-05-26T14:00:44.482Z,3.95
2023-05-26T14:01:46.391Z,3.28
2023-05-26T14:02:48.989Z,3.10
2023-05-26T14:03:51.100Z,3.50
2023-05-26T14:04:53.224Z,2.65
2023-05-26T14:05:55.079Z,2.83
2023-05-26T14:07:07.626Z,4.15
2023-05-26T14:08:16.911Z,3.47
2023-05-26T14:09:19.414Z,3.40
2023-05-26T14:10:21.477Z,3.22
2023-05-26T14:11:23.807Z,2.85
2023-05-26T14:12:25.784Z,2.67
2023-05-26T14:13:27.629Z,4.85
2023-05-26T14:14:29.558Z,3.65
2023-05-26T14:15:31.387Z,2.75
2023-05-26T14:16:33.390Z,2.88
2023-05-26T14:17:35.651Z,4.13